Time;durP1;ratioP1;P1;durP2;ratioP2;P2;SDS_P1;SDS_P2;PMS_P1;PMS_P2;Temp;Humidity;BMP_temperature;BMP_pressure;BME280_temperature;BME280_humidity;BME280_pressure;Samples;Min_cycle;Max_cycle;Signal;HPM_P1;HPM_P2
2021/03/31 00:02:05;;;;;;;12.23;6.18;;;;;;;9.17;60.24;97284.56;5092987;28;20131;-66
2021/03/31 00:04:31;;;;;;;16.98;6.63;;;;;;;9.15;59.91;97282.97;5093920;28;20044;-66
2021/03/31 00:06:58;;;;;;;13.43;7.43;;;;;;;9.13;60.59;97268.88;5093126;28;20148;-66
2021/03/31 00:09:24;;;;;;;16.58;7.25;;;;;;;9.12;61.12;97272.66;5093770;28;20165;-66
2021/03/31 00:11:50;;;;;;;14.52;7.32;;;;;;;9.06;60.52;97271.09;5092926;28;20148;-67
2021/03/31 00:14:17;;;;;;;15.52;7.05;;;;;;;9.03;60.36;97274.38;5093677;28;20123;-67
2021/03/31 00:16:43;;;;;;;15.82;6.95;;;;;;;9.01;60.33;97260.25;5092863;28;20048;-67
2021/03/31 00:19:10;;;;;;;10.48;6.32;;;;;;;8.99;60.70;97259.75;5093213;28;20047;-66
2021/03/31 00:21:37;;;;;;;12.55;6.68;;;;;;;9.00;60.63;97258.66;5093007;28;20047;-67
2021/03/31 00:24:04;;;;;;;11.77;7.10;;;;;;;8.99;60.85;97261.66;5092789;28;20399;-66
2021/03/31 00:26:31;;;;;;;12.07;6.70;;;;;;;8.97;60.83;97261.91;5092944;28;20040;-65
2021/03/31 00:28:57;;;;;;;11.23;7.10;;;;;;;8.97;60.20;97258.41;5092712;28;20040;-65
2021/03/31 00:31:23;;;;;;;11.40;6.80;;;;;;;8.95;60.06;97255.16;5093068;28;20044;-65
2021/03/31 00:33:49;;;;;;;12.73;6.72;;;;;;;8.91;59.64;97252.19;5092634;28;20043;-65
2021/03/31 00:36:15;;;;;;;12.57;6.72;;;;;;;8.85;60.08;97243.28;5092926;28;20075;-66
2021/03/31 00:38:41;;;;;;;10.82;6.72;;;;;;;8.79;60.20;97247.16;5092379;28;20693;-66
2021/03/31 00:41:07;;;;;;;13.25;6.60;;;;;;;8.79;60.13;97249.06;5092915;28;20056;-66
2021/03/31 00:43:33;;;;;;;11.27;6.55;;;;;;;8.77;60.99;97246.63;5092878;28;20093;-66
2021/03/31 00:46:00;;;;;;;14.90;6.55;;;;;;;8.71;61.22;97246.94;5092920;28;20039;-66
2021/03/31 00:48:26;;;;;;;12.05;6.65;;;;;;;8.68;61.23;97244.81;5092257;28;20658;-66
2021/03/31 00:50:54;;;;;;;12.25;6.75;;;;;;;8.62;61.12;97247.56;5092631;28;20082;-66
2021/03/31 00:53:23;;;;;;;13.05;6.75;;;;;;;8.59;61.16;97242.69;5092550;28;20044;-66
2021/03/31 00:55:50;;;;;;;10.23;6.90;;;;;;;8.55;61.26;97238.91;5092145;28;20048;-66
2021/03/31 00:58:17;;;;;;;13.48;6.60;;;;;;;8.47;61.52;97233.28;5092751;28;20043;-66
2021/03/31 01:00:43;;;;;;;9.80;6.15;;;;;;;8.41;61.80;97229.81;5092185;28;20040;-66
2021/03/31 01:03:09;;;;;;;9.35;6.05;;;;;;;8.39;61.91;97231.97;5092647;28;20131;-66
2021/03/31 01:05:36;;;;;;;9.68;5.65;;;;;;;8.37;62.16;97234.16;5092113;28;20048;-66
2021/03/31 01:08:03;;;;;;;10.10;6.07;;;;;;;8.36;62.22;97222.50;5092366;28;20497;-67
2021/03/31 01:10:32;;;;;;;10.20;5.93;;;;;;;8.37;62.27;97231.47;5092086;28;20051;-66
2021/03/31 01:13:17;;;;;;;9.98;5.47;;;;;;;8.34;62.16;97223.84;5092237;28;20059;-66
2021/03/31 01:15:49;;;;;;;10.82;5.75;;;;;;;8.31;62.06;97221.69;5092417;28;20051;-66
2021/03/31 01:18:22;;;;;;;9.80;5.75;;;;;;;8.27;62.19;97217.94;5091318;28;20052;-66
2021/03/31 01:21:33;;;;;;;11.02;4.88;;;;;;;8.26;62.38;97210.88;5091209;28;20043;-66
2021/03/31 01:24:33;;;;;;;12.63;5.55;;;;;;;8.18;62.30;97219.59;5043508;28;20051;-66
2021/03/31 01:27:04;;;;;;;13.07;5.75;;;;;;;8.09;62.48;97217.50;5071001;28;20059;-66
2021/03/31 01:29:43;;;;;;;11.43;5.15;;;;;;;8.06;62.52;97217.25;5092300;28;20040;-66
2021/03/31 01:32:20;;;;;;;8.38;4.90;;;;;;;8.05;62.90;97221.88;5090956;28;20097;-66
2021/03/31 01:34:50;;;;;;;11.43;4.68;;;;;;;8.09;63.33;97214.78;5092121;28;20036;-66
2021/03/31 01:37:21;;;;;;;8.88;4.63;;;;;;;8.08;63.38;97215.06;5091361;28;20092;-66
2021/03/31 01:39:49;;;;;;;8.13;5.13;;;;;;;8.03;62.40;97207.75;5091810;28;20407;-66
2021/03/31 01:42:17;;;;;;;8.73;5.05;;;;;;;7.96;62.29;97215.41;5091721;28;20048;-66
2021/03/31 01:44:45;;;;;;;9.10;4.63;;;;;;;7.93;62.38;97215.13;5091010;28;20051;-66
2021/03/31 01:47:13;;;;;;;7.30;4.65;;;;;;;7.87;63.31;97214.34;5091892;28;20052;-66
2021/03/31 01:49:40;;;;;;;13.77;5.93;;;;;;;7.77;64.31;97215.22;5091045;28;20040;-66
2021/03/31 01:52:08;;;;;;;10.18;4.32;;;;;;;7.72;64.44;97209.00;5091586;28;20044;-66
2021/03/31 01:54:36;;;;;;;6.78;4.47;;;;;;;7.72;64.49;97206.28;5091243;28;20048;-66
2021/03/31 01:57:04;;;;;;;8.68;4.30;;;;;;;7.70;64.64;97208.50;5091280;28;20047;-67
2021/03/31 01:59:31;;;;;;;5.90;4.07;;;;;;;7.72;64.78;97211.72;5091423;28;20102;-66
2021/03/31 02:01:59;;;;;;;10.23;4.80;;;;;;;7.74;63.88;97209.56;5091467;28;20044;-66
2021/03/31 02:04:26;;;;;;;9.23;5.10;;;;;;;7.74;63.99;97209.56;5091208;28;20044;-66
2021/03/31 02:06:54;;;;;;;8.07;4.40;;;;;;;7.73;63.69;97211.47;5090875;28;20094;-66
2021/03/31 02:09:22;;;;;;;9.07;4.90;;;;;;;7.73;63.61;97214.16;5090944;28;20044;-66
2021/03/31 02:11:49;;;;;;;8.82;5.05;;;;;;;7.68;63.53;97213.38;5090749;28;20042;-65
2021/03/31 02:14:17;;;;;;;8.02;4.40;;;;;;;7.57;63.92;97210.72;5091472;28;20481;-65
2021/03/31 02:16:44;;;;;;;6.20;4.00;;;;;;;7.47;64.13;97210.75;5090346;28;20094;-65
2021/03/31 02:19:13;;;;;;;7.72;4.45;;;;;;;7.40;64.30;97214.84;5091020;28;20040;-66
2021/03/31 02:21:42;;;;;;;8.60;4.60;;;;;;;7.36;64.24;97213.75;5090783;28;20040;-65
2021/03/31 02:24:09;;;;;;;6.78;4.10;;;;;;;7.28;64.70;97207.03;5090495;28;20044;-66
2021/03/31 02:26:36;;;;;;;10.35;4.25;;;;;;;7.27;64.79;97213.53;5091172;28;20044;-65
2021/03/31 02:29:02;;;;;;;10.07;5.20;;;;;;;7.27;64.70;97216.25;5089902;28;20044;-66
2021/03/31 02:31:28;;;;;;;7.20;3.78;;;;;;;7.22;64.77;97208.13;5091484;28;20422;-65
2021/03/31 02:33:56;;;;;;;6.00;3.67;;;;;;;7.22;64.66;97205.41;5090193;28;20040;-65
2021/03/31 02:36:23;;;;;;;6.30;4.18;;;;;;;7.16;64.60;97203.81;5090933;28;20075;-65
2021/03/31 02:38:50;;;;;;;10.90;4.13;;;;;;;7.15;64.69;97202.16;5090104;28;20127;-65
2021/03/31 02:41:17;;;;;;;10.18;4.53;;;;;;;7.14;64.75;97192.44;5090741;28;20495;-65
2021/03/31 02:43:48;;;;;;;7.90;4.65;;;;;;;7.12;64.70;97198.13;5090501;28;20051;-65
2021/03/31 02:46:19;;;;;;;9.48;4.10;;;;;;;7.11;64.61;97193.00;5090204;28;20047;-65
2021/03/31 02:48:47;;;;;;;11.35;4.40;;;;;;;7.13;64.52;97191.63;5090942;28;20051;-65
2021/03/31 02:51:13;;;;;;;11.68;4.78;;;;;;;7.16;64.66;97192.97;5089578;28;20462;-65
2021/03/31 02:53:41;;;;;;;9.40;4.32;;;;;;;7.21;65.20;97201.09;5090951;28;20040;-65
2021/03/31 02:56:09;;;;;;;10.32;4.25;;;;;;;7.23;64.91;97188.06;5089355;28;20039;-66
2021/03/31 02:58:38;;;;;;;6.53;4.07;;;;;;;7.26;64.64;97192.97;5091111;28;20040;-65
2021/03/31 03:01:05;;;;;;;8.07;3.97;;;;;;;7.28;64.00;97190.78;5089299;28;20491;-68
2021/03/31 03:03:33;;;;;;;14.15;4.57;;;;;;;7.29;64.05;97192.38;5090688;28;20461;-65
2021/03/31 03:06:00;;;;;;;8.10;4.03;;;;;;;7.29;64.21;97195.91;5090199;28;20098;-65
2021/03/31 03:08:27;;;;;;;6.80;4.10;;;;;;;7.28;64.00;97179.94;5089769;28;20040;-65
2021/03/31 03:10:57;;;;;;;10.15;4.22;;;;;;;7.24;63.87;97184.28;5090437;28;20093;-65
2021/03/31 03:13:24;;;;;;;9.98;4.15;;;;;;;7.21;63.85;97184.84;5089613;28;20044;-65
2021/03/31 03:15:50;;;;;;;7.65;4.63;;;;;;;7.19;63.76;97182.38;5090749;28;20495;-65
2021/03/31 03:18:17;;;;;;;7.65;4.65;;;;;;;7.16;63.75;97182.16;5089965;28;20063;-66
2021/03/31 03:20:43;;;;;;;7.68;4.30;;;;;;;7.17;63.70;97178.34;5092096;28;20040;-66
2021/03/31 03:23:09;;;;;;;11.38;4.38;;;;;;;7.18;63.85;97177.25;5093358;28;20048;-66
2021/03/31 03:25:36;;;;;;;11.50;4.15;;;;;;;7.18;63.73;97185.38;5094528;28;20036;-65
2021/03/31 03:28:04;;;;;;;9.18;4.70;;;;;;;7.17;63.48;97183.75;5093643;28;20040;-66
2021/03/31 03:30:31;;;;;;;10.18;4.38;;;;;;;7.15;63.38;97177.78;5094158;28;20076;-65
2021/03/31 03:32:59;;;;;;;12.25;4.40;;;;;;;7.18;63.75;97185.38;5094493;28;20040;-66
2021/03/31 03:35:28;;;;;;;8.82;4.20;;;;;;;7.11;63.32;97193.81;5093454;28;20047;-65
2021/03/31 03:37:55;;;;;;;7.65;4.57;;;;;;;7.06;63.30;97183.78;5094460;28;20051;-65
2021/03/31 03:40:23;;;;;;;8.23;4.40;;;;;;;7.02;63.51;97177.28;5092907;28;20051;-65
2021/03/31 03:42:50;;;;;;;10.10;4.32;;;;;;;6.96;63.47;97183.81;5094847;28;20552;-65
2021/03/31 03:45:17;;;;;;;9.43;4.05;;;;;;;6.91;63.91;97181.13;5093040;28;20040;-65
2021/03/31 03:47:44;;;;;;;7.93;4.60;;;;;;;6.85;64.35;97187.63;5094343;28;20565;-65
2021/03/31 03:50:12;;;;;;;9.90;4.53;;;;;;;6.78;64.78;97181.66;5090346;28;20043;-65
2021/03/31 03:52:39;;;;;;;8.13;4.40;;;;;;;6.78;64.83;97178.97;5094009;28;20405;-65
2021/03/31 03:55:07;;;;;;;10.40;4.25;;;;;;;6.76;65.31;97181.16;5093372;28;20066;-65
2021/03/31 03:57:33;;;;;;;9.65;4.13;;;;;;;6.74;65.08;97180.63;5093551;28;20040;-65
2021/03/31 03:59:59;;;;;;;14.30;4.88;;;;;;;6.72;65.07;97182.75;5094084;28;20040;-65
2021/03/31 04:02:25;;;;;;;8.35;3.90;;;;;;;6.67;65.08;97174.66;5092863;28;20051;-65
2021/03/31 04:04:51;;;;;;;7.30;4.43;;;;;;;6.64;65.11;97175.22;5094246;28;20123;-65
2021/03/31 04:07:17;;;;;;;10.43;4.43;;;;;;;6.58;65.29;97171.72;5092492;28;20044;-66
2021/03/31 04:09:47;;;;;;;7.28;3.90;;;;;;;6.56;65.36;97167.63;5094191;28;20559;-66
2021/03/31 04:12:15;;;;;;;7.28;4.10;;;;;;;6.54;65.30;97171.44;5092633;28;20437;-66
2021/03/31 04:14:42;;;;;;;10.07;4.10;;;;;;;6.53;65.50;97172.53;5093685;28;20055;-66
2021/03/31 04:17:11;;;;;;;7.35;4.03;;;;;;;6.52;65.38;97162.78;5092713;28;20044;-66
2021/03/31 04:19:38;;;;;;;8.00;4.20;;;;;;;6.52;65.51;97170.91;5091644;28;20620;-66
2021/03/31 04:22:05;;;;;;;8.50;4.15;;;;;;;6.48;65.44;97172.53;5093077;28;20495;-66
2021/03/31 04:24:33;;;;;;;7.45;4.63;;;;;;;6.44;65.72;97171.44;5092676;28;20044;-66
2021/03/31 04:27:00;;;;;;;8.30;4.38;;;;;;;6.42;65.74;97173.59;5093703;28;20044;-66
2021/03/31 04:29:27;;;;;;;9.35;4.60;;;;;;;6.39;65.72;97174.13;5092029;28;20051;-65
2021/03/31 04:31:53;;;;;;;9.82;4.38;;;;;;;6.39;65.82;97178.75;5093395;28;20036;-66
2021/03/31 04:34:20;;;;;;;9.98;4.40;;;;;;;6.35;65.75;97173.06;5092182;28;20487;-66
2021/03/31 04:36:47;;;;;;;10.30;4.00;;;;;;;6.32;65.84;97173.59;5093309;28;20531;-66
2021/03/31 04:39:15;;;;;;;8.48;4.78;;;;;;;6.27;65.81;97174.41;5092404;28;20044;-66
2021/03/31 04:41:41;;;;;;;8.27;4.60;;;;;;;6.23;65.93;97169.81;5092959;28;20181;-66
2021/03/31 04:44:09;;;;;;;9.77;4.40;;;;;;;6.18;66.28;97173.31;5092618;28;20433;-66
2021/03/31 04:46:35;;;;;;;10.18;4.47;;;;;;;6.14;66.19;97171.41;5092422;28;20047;-66
2021/03/31 04:49:01;;;;;;;9.13;5.65;;;;;;;6.13;66.24;97175.22;5092917;28;20032;-65
2021/03/31 04:51:27;;;;;;;11.30;4.38;;;;;;;6.14;66.23;97171.41;5091838;28;20454;-66
2021/03/31 04:53:53;;;;;;;8.05;4.65;;;;;;;6.18;66.35;97177.91;5093385;28;20043;-66
2021/03/31 04:56:19;;;;;;;7.68;4.28;;;;;;;6.21;66.23;97174.66;5091591;28;20380;-66
2021/03/31 04:58:45;;;;;;;10.02;4.50;;;;;;;6.24;65.98;97182.25;5093083;28;20109;-66
2021/03/31 05:01:12;;;;;;;10.43;4.93;;;;;;;6.26;65.95;97185.47;5091802;28;20047;-66
2021/03/31 05:03:38;;;;;;;9.13;5.00;;;;;;;6.25;65.87;97179.25;5092875;28;20044;-66
2021/03/31 05:06:04;;;;;;;13.40;4.78;;;;;;;6.26;65.81;97185.47;5092017;28;20117;-66
2021/03/31 05:08:30;;;;;;;11.82;5.05;;;;;;;6.31;66.30;97182.78;5092351;28;20592;-66
2021/03/31 05:10:56;;;;;;;9.15;5.03;;;;;;;6.34;65.45;97176.84;5092560;28;20126;-66
2021/03/31 05:13:22;;;;;;;11.55;4.40;;;;;;;6.36;65.01;97176.56;5091819;28;20075;-66
2021/03/31 05:15:48;;;;;;;8.98;4.45;;;;;;;6.38;65.01;97171.72;5092932;28;20169;-66
2021/03/31 05:18:15;;;;;;;11.18;4.13;;;;;;;6.39;64.68;97176.84;5091118;28;20569;-66
2021/03/31 05:20:41;;;;;;;7.68;4.05;;;;;;;6.37;64.57;97176.31;5092399;28;20044;-66
2021/03/31 05:23:07;;;;;;;7.97;4.25;;;;;;;6.35;64.65;97173.06;5091201;28;20083;-66
2021/03/31 05:25:33;;;;;;;11.40;5.15;;;;;;;6.33;65.12;97174.41;5092360;28;20104;-66
2021/03/31 05:28:00;;;;;;;17.00;5.45;;;;;;;6.30;65.67;97167.63;5091699;28;20051;-66
2021/03/31 05:30:27;;;;;;;14.93;5.90;;;;;;;6.31;65.63;97169.25;5091636;28;20040;-65
2021/03/31 05:32:53;;;;;;;10.05;5.05;;;;;;;6.30;66.05;97167.63;5091980;28;20040;-66
2021/03/31 05:35:20;;;;;;;9.70;4.43;;;;;;;6.31;65.98;97171.97;5091211;28;20044;-66
2021/03/31 05:37:47;;;;;;;11.50;5.10;;;;;;;6.34;65.96;97176.03;5092039;28;20512;-66
2021/03/31 05:40:14;;;;;;;9.05;4.20;;;;;;;6.36;65.98;97174.66;5090823;28;20036;-66
2021/03/31 05:42:40;;;;;;;10.30;5.53;;;;;;;6.44;66.31;97174.13;5091963;28;20048;-66
2021/03/31 05:45:08;;;;;;;7.90;4.85;;;;;;;6.51;65.68;97182.78;5090436;28;20040;-65
2021/03/31 05:47:37;;;;;;;10.10;4.40;;;;;;;6.58;65.61;97177.13;5092464;28;20040;-65
2021/03/31 05:50:04;;;;;;;11.23;4.78;;;;;;;6.65;65.41;97176.84;5090274;28;20051;-66
2021/03/31 05:52:31;;;;;;;12.00;4.68;;;;;;;6.72;65.83;97171.94;5091725;28;20040;-65
2021/03/31 05:55:01;;;;;;;12.20;4.35;;;;;;;6.74;65.48;97172.50;5091340;28;20040;-65
2021/03/31 05:57:29;;;;;;;9.48;4.82;;;;;;;6.77;65.88;97174.63;5091067;28;20063;-67
2021/03/31 05:59:55;;;;;;;10.18;4.60;;;;;;;6.81;65.99;97170.31;5091752;28;20055;-67
2021/03/31 06:02:21;;;;;;;15.07;4.95;;;;;;;6.85;65.98;97165.97;5090558;28;20048;-67
2021/03/31 06:04:47;;;;;;;11.07;4.75;;;;;;;6.92;65.76;97169.19;5091693;28;20044;-67
2021/03/31 06:07:13;;;;;;;16.17;4.78;;;;;;;6.99;65.56;97172.41;5090152;28;20043;-67
2021/03/31 06:10:09;;;;;;;17.98;5.47;;;;;;;7.07;65.00;97171.88;5089948;28;20055;-78
2021/03/31 06:12:39;;;;;;;20.17;5.60;;;;;;;7.17;64.59;97172.94;5088079;28;20044;-73
2021/03/31 06:15:16;;;;;;;17.20;5.15;;;;;;;7.28;64.22;97166.38;5088691;28;20044;-73
2021/03/31 06:17:45;;;;;;;18.67;5.57;;;;;;;7.39;64.38;97169.88;5091455;28;20044;-73
2021/03/31 06:20:12;;;;;;;9.45;4.65;;;;;;;7.51;63.82;97159.50;5090137;28;20476;-73
2021/03/31 06:22:48;;;;;;;10.57;5.20;;;;;;;7.62;63.16;97173.81;5092067;28;20040;-73
2021/03/31 06:25:17;;;;;;;16.50;5.40;;;;;;;7.72;62.80;97168.34;5090175;28;20047;-73
2021/03/31 06:27:52;;;;;;;15.75;5.35;;;;;;;7.88;62.92;97167.16;5091857;28;20047;-72
2021/03/31 06:30:21;;;;;;;17.77;4.68;;;;;;;8.02;62.50;97164.66;5083160;28;20048;-72
2021/03/31 06:32:48;;;;;;;10.85;4.40;;;;;;;8.13;60.45;97165.38;5083320;28;20047;-72
2021/03/31 06:35:17;;;;;;;12.68;4.20;;;;;;;8.22;59.58;97167.22;5067672;28;20059;-72
2021/03/31 06:37:44;;;;;;;12.23;4.20;;;;;;;8.38;59.27;97165.22;5067799;28;20090;-72
2021/03/31 06:40:28;;;;;;;8.20;4.35;;;;;;;8.50;58.57;97156.72;5067944;28;20048;-73
2021/03/31 06:43:08;;;;;;;10.07;4.25;;;;;;;8.64;58.02;97160.38;5067373;28;20662;-72
2021/03/31 06:45:36;;;;;;;7.70;3.95;;;;;;;8.76;57.50;97160.81;5088474;28;20097;-71
2021/03/31 06:48:05;;;;;;;7.50;3.90;;;;;;;8.91;57.74;97168.00;5086992;28;20051;-72
2021/03/31 06:50:36;;;;;;;11.70;3.97;;;;;;;9.05;55.42;97158.06;5105730;28;20043;-72
2021/03/31 06:53:05;;;;;;;12.27;4.03;;;;;;;9.20;55.84;97157.09;5107889;28;20048;-72
2021/03/31 06:55:31;;;;;;;13.07;4.40;;;;;;;9.34;55.47;97157.19;5107614;28;20134;-71
2021/03/31 06:57:59;;;;;;;12.05;4.72;;;;;;;9.50;55.58;97153.22;5107970;28;20391;-72
2021/03/31 07:00:27;;;;;;;8.23;3.60;;;;;;;9.68;53.51;97146.97;5106609;28;20048;-72
2021/03/31 07:02:54;;;;;;;9.30;3.58;;;;;;;9.82;53.70;97143.53;5108439;28;20038;-70
2021/03/31 07:05:21;;;;;;;6.80;3.53;;;;;;;10.00;53.66;97139.19;5107194;28;20100;-71
2021/03/31 07:07:48;;;;;;;11.05;3.80;;;;;;;10.16;55.01;97138.66;5108620;28;20173;-70
2021/03/31 07:10:16;;;;;;;7.43;3.45;;;;;;;10.32;53.97;97141.97;5106913;28;20040;-71
2021/03/31 07:12:43;;;;;;;6.13;3.08;;;;;;;10.50;52.05;97147.72;5107986;28;20043;-70
2021/03/31 07:15:12;;;;;;;6.47;3.13;;;;;;;10.71;51.16;97138.88;5107720;28;20054;-70
2021/03/31 07:17:42;;;;;;;9.18;3.10;;;;;;;10.90;49.51;97146.16;5107603;28;20510;-70
2021/03/31 07:20:09;;;;;;;13.48;3.88;;;;;;;11.17;50.80;97146.22;5107264;28;20052;-71
2021/03/31 07:22:35;;;;;;;8.40;3.00;;;;;;;12.33;46.81;97140.47;5112181;28;20043;-71
2021/03/31 07:25:02;;;;;;;6.95;3.20;;;;;;;13.16;43.80;97146.28;5128789;28;20073;-70
2021/03/31 07:27:29;;;;;;;6.03;3.25;;;;;;;14.11;42.05;97146.53;5121013;28;20075;-70
2021/03/31 07:30:06;;;;;;;10.98;3.80;;;;;;;14.95;39.78;97145.19;5108038;28;20437;-70
2021/03/31 07:32:40;;;;;;;7.15;3.42;;;;;;;15.61;38.46;97136.56;5109458;28;20039;-70
2021/03/31 07:35:08;;;;;;;6.38;2.88;;;;;;;16.35;36.85;97143.34;5110648;28;20043;-70
2021/03/31 07:37:35;;;;;;;7.18;3.22;;;;;;;16.68;35.33;97137.88;5110830;28;20035;-71
2021/03/31 07:40:05;;;;;;;10.40;3.30;;;;;;;17.13;35.12;97135.16;5110334;28;20444;-71
2021/03/31 07:42:31;;;;;;;8.10;2.90;;;;;;;17.28;33.63;97147.47;5110670;28;20051;-70
2021/03/31 07:45:00;;;;;;;9.05;3.20;;;;;;;17.22;34.63;97137.78;5109828;28;20043;-71
2021/03/31 07:47:28;;;;;;;6.72;2.97;;;;;;;17.82;33.04;97150.03;5110502;28;20040;-71
2021/03/31 07:49:55;;;;;;;6.25;2.80;;;;;;;18.57;32.37;97141.22;5109160;28;20112;-70
2021/03/31 07:52:21;;;;;;;6.63;3.03;;;;;;;19.03;31.33;97137.00;5110174;28;20055;-69
2021/03/31 07:54:48;;;;;;;6.70;3.08;;;;;;;19.56;31.35;97131.25;5110041;28;20085;-69
2021/03/31 07:57:24;;;;;;;6.10;2.80;;;;;;;19.45;29.93;97142.03;5109652;28;20102;-69
2021/03/31 07:59:50;;;;;;;7.25;3.13;;;;;;;19.38;31.35;97136.34;5110297;28;20090;-70
2021/03/31 08:02:16;;;;;;;7.00;3.05;;;;;;;19.54;30.57;97139.91;5109665;28;20055;-71
2021/03/31 08:04:42;;;;;;;6.82;3.08;;;;;;;20.02;30.10;97143.41;5110424;28;20418;-70
2021/03/31 08:07:21;;;;;;;11.10;3.55;;;;;;;20.50;29.73;97135.00;5112403;28;20045;-70
2021/03/31 08:09:47;;;;;;;7.35;3.30;;;;;;;20.84;29.43;97144.38;5114610;28;20054;-70
2021/03/31 08:12:28;;;;;;;12.02;4.03;;;;;;;21.17;30.18;97137.47;5112916;28;20039;-70
2021/03/31 08:14:54;;;;;;;7.03;3.40;;;;;;;21.54;29.45;97144.09;5114044;28;20568;-71
2021/03/31 08:17:20;;;;;;;10.45;4.18;;;;;;;21.71;27.73;97128.94;5113090;28;20051;-71
2021/03/31 08:19:48;;;;;;;6.68;3.40;;;;;;;21.99;27.12;97133.31;5113426;28;20112;-71
2021/03/31 08:22:24;;;;;;;9.55;3.28;;;;;;;22.40;29.06;97128.78;5113441;28;20040;-71
2021/03/31 08:24:52;;;;;;;8.20;3.17;;;;;;;22.86;26.36;97128.53;5112926;28;20506;-71
2021/03/31 08:27:19;;;;;;;6.68;3.20;;;;;;;22.93;27.08;97128.66;5113893;28;20040;-71
2021/03/31 08:29:52;;;;;;;9.93;2.90;;;;;;;23.18;25.92;97113.03;5113232;28;20035;-70
2021/03/31 08:32:19;;;;;;;7.80;3.03;;;;;;;23.40;26.53;97113.25;5113875;28;20043;-71
2021/03/31 08:34:46;;;;;;;7.78;3.35;;;;;;;23.62;25.18;97115.00;5112962;28;20088;-71
2021/03/31 08:37:28;;;;;;;5.38;3.08;;;;;;;23.86;26.14;97107.28;5111909;28;20184;-71
2021/03/31 08:40:00;;;;;;;7.38;3.00;;;;;;;23.92;25.28;97105.72;5112526;28;20043;-71
2021/03/31 08:42:26;;;;;;;9.93;3.27;;;;;;;23.93;24.74;97101.75;5112390;28;20060;-71
2021/03/31 08:44:55;;;;;;;11.88;3.50;;;;;;;24.08;25.19;97111.00;5113598;28;20049;-71
2021/03/31 08:47:24;;;;;;;10.52;3.25;;;;;;;24.49;24.70;97106.09;5112209;28;20115;-71
2021/03/31 08:49:52;;;;;;;8.45;3.28;;;;;;;24.62;23.70;97104.53;5120032;27;20045;-71
2021/03/31 08:52:21;;;;;;;7.68;3.13;;;;;;;24.90;24.66;97103.03;5124847;27;20100;-72
2021/03/31 08:54:49;;;;;;;11.23;3.58;;;;;;;24.92;22.31;97107.03;5119539;27;20044;-71
2021/03/31 08:57:17;;;;;;;7.90;2.92;;;;;;;24.87;22.84;97101.03;5109245;28;20059;-69
2021/03/31 08:59:44;;;;;;;14.75;4.00;;;;;;;25.02;22.76;97102.69;5109161;28;20043;-70
2021/03/31 09:02:12;;;;;;;8.23;3.47;;;;;;;25.37;24.30;97095.56;5094895;28;20426;-71
2021/03/31 09:04:38;;;;;;;7.80;3.95;;;;;;;25.72;22.21;97101.16;5109573;28;20514;-71
2021/03/31 09:07:10;;;;;;;6.93;3.45;;;;;;;25.64;21.00;97096.78;5109585;28;20419;-71
2021/03/31 09:09:37;;;;;;;10.25;4.15;;;;;;;25.15;21.91;97092.75;5109177;28;20055;-71
2021/03/31 09:12:06;;;;;;;6.75;3.33;;;;;;;24.59;22.44;97091.41;5109661;28;20051;-71
2021/03/31 09:14:33;;;;;;;10.32;3.40;;;;;;;24.88;23.09;97094.28;5108380;28;20054;-71
2021/03/31 09:17:01;;;;;;;12.10;3.55;;;;;;;25.19;22.31;97090.78;5109628;28;20055;-72
2021/03/31 09:19:29;;;;;;;10.07;4.13;;;;;;;25.38;23.40;97088.81;5107575;27;20055;-71
2021/03/31 09:21:55;;;;;;;8.00;3.75;;;;;;;25.62;21.30;97093.59;5109755;28;20075;-70
2021/03/31 09:24:25;;;;;;;6.97;4.03;;;;;;;25.38;22.37;97091.63;5109080;28;20113;-71
2021/03/31 09:26:56;;;;;;;5.53;3.40;;;;;;;25.65;21.96;97081.66;5109134;28;20490;-71
2021/03/31 09:29:24;;;;;;;7.32;3.45;;;;;;;25.90;22.88;97080.88;5109264;28;20074;-70
2021/03/31 09:31:51;;;;;;;8.05;3.28;;;;;;;26.22;20.97;97078.78;5109010;28;20048;-70
2021/03/31 09:34:18;;;;;;;10.88;3.38;;;;;;;26.46;21.22;97079.13;5109786;28;20043;-72
2021/03/31 09:37:00;;;;;;;17.27;4.97;;;;;;;26.64;21.66;97084.66;5108610;28;20118;-72
2021/03/31 09:39:48;;;;;;;16.15;4.30;;;;;;;26.62;19.73;97082.25;5109046;28;20515;-72
2021/03/31 09:42:19;;;;;;;6.88;3.80;;;;;;;26.46;19.83;97068.75;5108922;28;20135;-72
2021/03/31 09:44:46;;;;;;;8.55;3.70;;;;;;;26.37;22.26;97068.38;5108964;28;20044;-72
2021/03/31 09:47:12;;;;;;;8.35;4.20;;;;;;;26.35;21.05;97069.97;5108845;28;20044;-72
2021/03/31 09:49:42;;;;;;;8.00;3.85;;;;;;;26.26;19.72;97065.63;5108992;28;20044;-72
2021/03/31 09:52:08;;;;;;;10.10;3.85;;;;;;;26.08;20.63;97070.44;5122170;27;20043;-72
2021/03/31 09:54:34;;;;;;;8.05;3.70;;;;;;;26.10;20.09;97065.28;5128509;27;20047;-72
2021/03/31 09:57:00;;;;;;;7.22;3.47;;;;;;;26.16;21.11;97057.28;5127019;27;20054;-70
2021/03/31 09:59:27;;;;;;;11.23;4.38;;;;;;;26.02;20.31;97055.31;5108530;28;20054;-71
2021/03/31 10:01:54;;;;;;;6.13;3.10;;;;;;;25.61;20.23;97058.53;5108956;28;20047;-71
2021/03/31 10:04:20;;;;;;;7.78;3.53;;;;;;;25.43;19.66;97050.19;5108499;28;20054;-71
2021/03/31 10:07:10;;;;;;;8.48;3.83;;;;;;;25.30;23.14;97053.75;5108276;28;20048;-70
2021/03/31 10:09:40;;;;;;;8.82;3.47;;;;;;;25.29;21.32;97049.38;5108936;28;20518;-71
2021/03/31 10:12:07;;;;;;;9.48;3.53;;;;;;;24.83;21.50;97047.31;5107227;28;20043;-71
2021/03/31 10:14:43;;;;;;;8.68;3.78;;;;;;;24.83;21.14;97039.75;5109249;28;20154;-70
2021/03/31 10:17:11;;;;;;;8.20;4.18;;;;;;;24.72;20.99;97041.72;5107430;28;20697;-71
2021/03/31 10:19:38;;;;;;;6.88;3.50;;;;;;;24.39;20.63;97037.25;5108088;28;20618;-71
2021/03/31 10:22:05;;;;;;;8.55;3.58;;;;;;;24.16;22.17;97027.16;5107759;28;20052;-71
2021/03/31 10:24:36;;;;;;;10.23;3.80;;;;;;;23.97;23.24;97030.25;5108210;28;20067;-71
2021/03/31 10:27:02;;;;;;;10.65;3.30;;;;;;;24.08;21.88;97030.31;5107864;28;20589;-71
2021/03/31 10:29:28;;;;;;;11.45;3.40;;;;;;;24.01;21.36;97025.50;5107776;28;20047;-70
2021/03/31 10:31:57;;;;;;;7.97;3.78;;;;;;;23.72;22.90;97018.19;5108961;28;20067;-71
2021/03/31 10:34:35;;;;;;;5.40;3.53;;;;;;;23.68;22.84;97007.84;5106925;28;20487;-70
2021/03/31 10:37:04;;;;;;;9.57;3.90;;;;;;;23.28;22.79;97013.47;5108403;28;20047;-70
2021/03/31 10:40:04;;;;;;;8.65;3.50;;;;;;;23.36;24.42;97007.59;5110591;28;20040;-72
2021/03/31 10:48:29;;;;;;;5.40;3.75;;;;;;;23.21;25.53;96999.53;5110240;28;20461;-70
2021/03/31 10:51:01;;;;;;;8.57;4.00;;;;;;;23.16;23.96;96998.72;5127424;27;20127;-76
2021/03/31 10:53:31;;;;;;;14.98;4.55;;;;;;;22.94;24.55;96996.13;5123740;27;20035;-75
2021/03/31 10:55:57;;;;;;;7.38;3.65;;;;;;;22.71;24.34;96996.28;5131154;27;20062;-76
2021/03/31 10:58:23;;;;;;;14.57;3.97;;;;;;;22.84;25.73;96987.28;5116851;27;20040;-75
2021/03/31 11:00:49;;;;;;;6.70;4.22;;;;;;;22.96;24.41;96986.22;5110474;28;20043;-75
2021/03/31 11:03:15;;;;;;;11.25;4.38;;;;;;;23.04;25.56;96987.09;5110957;28;20071;-75
2021/03/31 11:05:41;;;;;;;8.25;3.72;;;;;;;23.06;23.64;96987.50;5109995;28;20096;-76
2021/03/31 11:08:08;;;;;;;8.55;4.10;;;;;;;23.01;23.99;96983.09;5110632;28;20134;-74
2021/03/31 11:10:34;;;;;;;11.43;5.22;;;;;;;23.00;24.06;96978.72;5110462;28;20048;-75
2021/03/31 11:13:00;;;;;;;7.63;4.45;;;;;;;22.96;24.12;96986.22;5111172;28;20050;-75
2021/03/31 11:15:26;;;;;;;11.85;4.68;;;;;;;22.98;23.83;96985.88;5110015;28;20067;-75
2021/03/31 11:18:01;;;;;;;8.98;4.85;;;;;;;23.05;25.05;96978.38;5111020;28;20050;-75
2021/03/31 11:20:43;;;;;;;8.95;4.82;;;;;;;23.02;26.81;96979.16;5110509;28;20127;-77
2021/03/31 11:25:55;;;;;;;10.63;4.38;;;;;;;23.26;24.80;96966.63;5111302;28;20517;-76
2021/03/31 11:28:21;;;;;;;16.08;5.20;;;;;;;23.18;25.19;96962.22;5109473;28;20070;-75
2021/03/31 11:30:48;;;;;;;12.95;5.65;;;;;;;23.37;25.61;96963.94;5110894;28;20490;-76
2021/03/31 11:33:14;;;;;;;10.63;5.60;;;;;;;23.44;24.67;96964.00;5109534;28;20044;-76
2021/03/31 11:35:40;;;;;;;15.65;7.25;;;;;;;23.51;23.18;96955.69;5110654;28;20043;-76
2021/03/31 11:38:07;;;;;;;15.48;6.78;;;;;;;23.65;21.80;96953.03;5109938;28;20092;-76
2021/03/31 11:40:34;;;;;;;10.88;6.47;;;;;;;23.66;22.57;96949.06;5110131;28;20115;-75
2021/03/31 11:43:00;;;;;;;11.93;6.22;;;;;;;23.64;23.89;96951.41;5114210;28;20402;-76
2021/03/31 11:45:26;;;;;;;10.48;6.50;;;;;;;23.82;24.26;96948.72;5113485;28;20047;-74
2021/03/31 11:47:52;;;;;;;18.55;6.82;;;;;;;24.08;23.24;96947.66;5115115;28;20044;-77
2021/03/31 11:50:18;;;;;;;16.48;6.45;;;;;;;24.25;22.89;96940.53;5112769;28;20047;-77